createdAt,value
2024-01-06T00:03:12.618Z,2.29
2024-01-06T00:13:16.015Z,2.40
2024-01-06T00:23:19.250Z,2.42
2024-01-06T00:33:22.499Z,2.36
2024-01-06T00:43:25.618Z,2.44
2024-01-06T00:53:28.966Z,2.61
2024-01-06T01:03:32.190Z,2.68
2024-01-06T01:13:35.471Z,2.74
2024-01-06T01:23:38.664Z,2.82
2024-01-06T01:33:42.091Z,2.77
2024-01-06T01:43:47.140Z,2.91
2024-01-06T01:53:50.768Z,2.98
2024-01-06T02:03:54.135Z,2.93
2024-01-06T02:13:57.333Z,2.86
2024-01-06T02:24:00.602Z,2.87
2024-01-06T02:34:04.121Z,2.84
2024-01-06T02:44:09.097Z,2.92
2024-01-06T02:54:13.970Z,3.13
2024-01-06T03:04:17.344Z,3.22
2024-01-06T03:14:20.672Z,3.29
2024-01-06T03:24:25.441Z,3.24
2024-01-06T03:34:28.575Z,3.27
2024-01-06T03:44:34.833Z,3.29
2024-01-06T03:54:38.265Z,3.44
2024-01-06T04:04:41.445Z,3.41
2024-01-06T04:14:44.757Z,3.48
2024-01-06T04:24:48.045Z,3.53
2024-01-06T04:34:51.059Z,3.63
2024-01-06T04:44:54.229Z,3.71
2024-01-06T04:54:57.381Z,3.80
2024-01-06T05:05:00.645Z,3.76
2024-01-06T05:15:05.084Z,3.90
2024-01-06T05:25:08.954Z,3.88
2024-01-06T05:35:12.072Z,3.90
2024-01-06T05:45:15.576Z,3.87
2024-01-06T05:55:18.982Z,3.89
2024-01-06T06:05:22.007Z,3.93
2024-01-06T06:15:25.240Z,4.10
2024-01-06T06:25:28.614Z,4.33
2024-01-06T06:35:31.913Z,4.32
2024-01-06T06:45:35.010Z,4.18
2024-01-06T06:55:38.955Z,4.19
2024-01-06T07:05:42.310Z,4.40
2024-01-06T07:15:46.367Z,4.46
2024-01-06T07:25:50.608Z,4.61
2024-01-06T07:35:53.851Z,4.65
2024-01-06T07:45:57.357Z,4.84
2024-01-06T07:56:00.609Z,4.96
2024-01-06T08:06:04.897Z,4.89
2024-01-06T08:16:08.211Z,4.94
2024-01-06T08:26:13.666Z,5.06
2024-01-06T08:36:18.150Z,5.25
2024-01-06T08:46:21.495Z,5.52
2024-01-06T08:56:24.620Z,5.91
2024-01-06T09:06:27.990Z,6.38
2024-01-06T09:16:31.101Z,6.85
2024-01-06T09:26:37.171Z,7.46
2024-01-06T09:36:40.364Z,7.68
2024-01-06T09:46:44.930Z,7.85
2024-01-06T09:56:50.328Z,8.19
2024-01-06T10:06:53.368Z,8.59
2024-01-06T10:16:57.066Z,8.90
2024-01-06T10:27:00.643Z,9.17
2024-01-06T10:37:05.167Z,9.37
2024-01-06T10:47:09.230Z,9.62
2024-01-06T10:57:13.174Z,9.73
2024-01-06T11:07:25.701Z,9.91
2024-01-06T11:18:00.168Z,9.95
2024-01-06T11:28:09.007Z,9.99
2024-01-06T11:38:15.241Z,9.92
2024-01-06T11:48:20.274Z,9.65
2024-01-06T11:58:24.642Z,9.07
2024-01-06T12:08:29.147Z,8.25
2024-01-06T12:18:32.167Z,7.50
2024-01-06T12:28:37.790Z,7.06
2024-01-06T12:38:43.882Z,6.52
2024-01-06T12:48:50.224Z,5.96
2024-01-06T12:58:54.445Z,5.46
2024-01-06T13:08:57.911Z,4.99
2024-01-06T13:19:01.808Z,4.50
2024-01-06T13:29:05.270Z,4.10
2024-01-06T13:39:08.355Z,3.84
2024-01-06T13:49:13.608Z,3.66
2024-01-06T13:59:19.067Z,3.51
2024-01-06T14:09:23.514Z,3.41
2024-01-06T14:19:27.083Z,3.13
2024-01-06T14:29:31.677Z,2.90
2024-01-06T14:39:35.584Z,2.75
2024-01-06T14:49:39.692Z,2.70
2024-01-06T14:59:44.387Z,2.71
2024-01-06T15:09:56.120Z,2.70
2024-01-06T15:20:00.326Z,2.67
2024-01-06T15:30:08.313Z,2.62
2024-01-06T15:40:15.154Z,2.64
2024-01-06T15:50:18.491Z,2.72
2024-01-06T16:00:22.840Z,2.70
2024-01-06T16:10:29.798Z,2.67
2024-01-06T16:20:33.253Z,2.61
2024-01-06T16:30:36.826Z,2.49
2024-01-06T16:40:41.285Z,2.44
2024-01-06T16:50:46.396Z,2.43
2024-01-06T17:00:49.922Z,2.37
2024-01-06T17:10:53.204Z,2.35
2024-01-06T17:20:56.212Z,2.29
2024-01-06T17:31:00.426Z,2.22
2024-01-06T17:41:06.332Z,2.19
2024-01-06T17:51:11.531Z,2.12
2024-01-06T18:01:16.246Z,2.04
2024-01-06T18:11:19.540Z,1.99
2024-01-06T18:21:22.706Z,1.87
2024-01-06T18:31:26.346Z,1.76
2024-01-06T18:41:29.693Z,1.66
2024-01-06T18:51:38.477Z,1.57
2024-01-06T19:01:44.700Z,1.48
2024-01-06T19:11:48.629Z,1.39
2024-01-06T19:21:51.797Z,1.26
2024-01-06T19:31:57.581Z,1.18
2024-01-06T19:42:00.591Z,1.13
2024-01-06T19:52:04.895Z,1.03
2024-01-06T20:02:08.042Z,0.95
2024-01-06T20:12:11.221Z,0.97
2024-01-06T20:22:15.092Z,0.94
2024-01-06T20:32:18.502Z,0.96
2024-01-06T20:42:22.036Z,0.98
2024-01-06T20:52:28.274Z,0.99
2024-01-06T21:02:31.990Z,0.95
2024-01-06T21:12:36.542Z,0.93
2024-01-06T21:22:40.759Z,0.88
2024-01-06T21:32:44.380Z,0.85
2024-01-06T21:42:48.144Z,0.87
2024-01-06T21:52:51.513Z,0.83
2024-01-06T22:02:54.746Z,0.76
2024-01-06T22:12:58.237Z,0.62
2024-01-06T22:23:01.532Z,0.56
2024-01-06T22:33:05.353Z,0.48
2024-01-06T22:43:08.472Z,0.38
2024-01-06T22:53:11.589Z,0.30
2024-01-06T23:03:15.074Z,0.16
2024-01-06T23:13:20.093Z,-0.02
2024-01-06T23:23:23.201Z,-0.17
2024-01-06T23:33:26.596Z,-0.30
2024-01-06T23:43:30.015Z,-0.39
2024-01-06T23:53:33.259Z,-0.51
